Blair, Illinois
Current Conditions -  °F | °C
As of 3:15 PM on Sunday 23 Nov 2014 (Local Time) from KFOA Reporting Station
Moderate Rain Moderate Rain  
Wind Chill: 11°   Ceiling: 400
Heat Index: 11°   Visibility: 2.5mi
Dew Point: 10°   Wind: 7mph
Humidity: 98%   Direction: 110°ESE
Pressure: 29.42"   Gusts: NA
Location:  38.8267°N, 88.5024°W
Report Text: KFOA 232115Z AUTO 11006KT 2 1/2SM RA OVC004 11/10 A2942 RMK AO2 P0003 T01060103
Loading
Personal Weather Stations






























Interactive Weather Map New forecast layout! Learn more

10-Day Weather Forecast

Advertisements
Track Severe Weather on mobile